createdAt,value
2018-02-17T00:00:28.533Z,84.80
2018-02-17T00:02:56.144Z,84.60
2018-02-17T00:05:24.553Z,85.00
2018-02-17T00:07:52.247Z,85.00
2018-02-17T00:10:20.652Z,85.00
2018-02-17T00:12:48.357Z,84.90
2018-02-17T00:15:15.912Z,85.20
2018-02-17T00:17:44.330Z,85.70
2018-02-17T00:20:11.934Z,85.70
2018-02-17T00:22:39.502Z,85.50
2018-02-17T00:25:07.400Z,86.20
2018-02-17T00:27:34.984Z,85.50
2018-02-17T00:30:02.588Z,86.30
2018-02-17T00:32:31.861Z,86.20
2018-02-17T00:35:00.143Z,86.20
2018-02-17T00:37:28.495Z,86.50
2018-02-17T00:39:56.922Z,86.70
2018-02-17T00:42:24.652Z,86.70
2018-02-17T00:44:52.289Z,87.10
2018-02-17T00:47:19.872Z,86.60
2018-02-17T00:49:47.453Z,86.90
2018-02-17T00:52:15.873Z,87.20
2018-02-17T00:54:43.447Z,87.20
2018-02-17T00:57:11.066Z,87.30
2018-02-17T00:59:38.696Z,88.20
2018-02-17T01:02:06.451Z,87.30
2018-02-17T01:04:34.085Z,87.20
2018-02-17T01:07:02.547Z,87.10
2018-02-17T01:09:31.440Z,86.60
2018-02-17T01:11:59.060Z,87.30
2018-02-17T01:14:26.656Z,86.60
2018-02-17T01:16:54.247Z,86.80
2018-02-17T01:19:21.814Z,86.60
2018-02-17T01:21:50.262Z,87.00
2018-02-17T01:24:17.830Z,87.00
2018-02-17T01:26:45.414Z,87.70
2018-02-17T01:29:13.062Z,87.00
2018-02-17T01:31:40.677Z,86.70
2018-02-17T01:34:08.347Z,86.60
2018-02-17T01:36:35.928Z,86.10
2018-02-17T01:39:05.200Z,86.10
2018-02-17T01:41:32.817Z,86.10
2018-02-17T01:44:01.248Z,86.00
2018-02-17T01:46:28.801Z,85.80
2018-02-17T01:48:56.429Z,85.10
2018-02-17T01:51:24.021Z,85.40
2018-02-17T01:53:51.639Z,85.70
2018-02-17T01:56:19.272Z,86.10
2018-02-17T01:58:46.988Z,86.90
2018-02-17T02:01:14.560Z,87.60
2018-02-17T02:03:42.355Z,87.60
2018-02-17T02:06:09.935Z,87.70
2018-02-17T02:08:37.491Z,87.40
2018-02-17T02:11:05.185Z,87.40
2018-02-17T02:13:32.753Z,86.80
2018-02-17T02:16:01.578Z,86.10
2018-02-17T02:18:29.226Z,86.40
2018-02-17T02:20:56.827Z,86.50
2018-02-17T02:23:26.277Z,85.70
2018-02-17T02:25:54.611Z,86.20
2018-02-17T02:28:22.284Z,86.20
2018-02-17T02:30:50.677Z,86.10
2018-02-17T02:33:18.984Z,86.00
2018-02-17T02:35:46.615Z,86.00
2018-02-17T02:38:14.207Z,86.80
2018-02-17T02:40:42.650Z,86.30
2018-02-17T02:43:10.309Z,86.40
2018-02-17T02:45:39.395Z,86.70
2018-02-17T02:48:06.973Z,86.70
2018-02-17T02:50:35.301Z,87.10
2018-02-17T02:53:02.905Z,87.10
2018-02-17T02:55:31.082Z,87.00
2018-02-17T02:57:58.704Z,86.20
2018-02-17T03:00:26.309Z,87.00
2018-02-17T03:02:54.657Z,87.40
2018-02-17T03:05:22.269Z,87.40
2018-02-17T03:07:49.896Z,87.10
2018-02-17T03:10:17.469Z,88.10
2018-02-17T03:12:45.397Z,87.90
2018-02-17T03:15:13.720Z,87.40
2018-02-17T03:17:42.222Z,87.30
2018-02-17T03:20:09.826Z,87.40
2018-02-17T03:22:37.473Z,87.60
2018-02-17T03:25:05.825Z,87.30
2018-02-17T03:27:34.157Z,86.80
2018-02-17T03:30:02.148Z,86.80
2018-02-17T03:32:31.004Z,86.30
2018-02-17T03:34:58.591Z,86.10
2018-02-17T03:37:26.157Z,87.10
2018-02-17T03:39:53.767Z,87.40
2018-02-17T03:42:21.417Z,87.60
2018-02-17T03:44:50.216Z,87.30
2018-02-17T03:47:18.527Z,87.60
2018-02-17T03:49:46.135Z,87.70
2018-02-17T03:52:14.495Z,86.80
2018-02-17T03:54:42.062Z,86.80
2018-02-17T03:57:09.632Z,86.80
2018-02-17T03:59:37.162Z,87.30
2018-02-17T04:02:04.766Z,87.30
2018-02-17T04:04:32.331Z,87.70
2018-02-17T04:07:00.678Z,87.90
2018-02-17T04:09:28.283Z,87.80
2018-02-17T04:11:55.841Z,87.10
2018-02-17T04:14:23.451Z,86.80
2018-02-17T04:16:50.989Z,86.50
2018-02-17T04:19:18.580Z,86.70
2018-02-17T04:21:46.918Z,86.60
2018-02-17T04:24:14.480Z,86.60
2018-02-17T04:26:42.148Z,86.50
2018-02-17T04:29:09.731Z,87.20
2018-02-17T04:31:37.315Z,86.20
2018-02-17T04:34:05.064Z,86.40
2018-02-17T04:36:32.682Z,86.10
2018-02-17T04:39:01.101Z,86.70
2018-02-17T04:41:31.037Z,86.80
2018-02-17T04:43:59.272Z,86.80
2018-02-17T04:49:35.079Z,86.20
2018-02-17T04:52:08.341Z,86.00
2018-02-17T04:54:36.485Z,86.00
2018-02-17T04:57:06.727Z,85.50
2018-02-17T05:02:47.635Z,85.40
2018-02-17T05:05:17.036Z,85.40
2018-02-17T05:07:46.512Z,85.00
2018-02-17T05:10:14.077Z,85.00
2018-02-17T05:12:41.678Z,84.70
2018-02-17T05:15:25.720Z,85.60
2018-02-17T05:20:59.450Z,85.60
2018-02-17T05:23:28.814Z,86.00
2018-02-17T05:25:57.923Z,85.50
2018-02-17T05:28:43.052Z,85.70
2018-02-17T05:31:10.672Z,85.60
2018-02-17T05:33:41.254Z,86.10
2018-02-17T05:36:14.364Z,85.60
2018-02-17T05:38:42.670Z,85.50
2018-02-17T05:44:13.501Z,85.30
2018-02-17T05:46:45.677Z,85.20
2018-02-17T05:49:25.879Z,85.00
2018-02-17T05:51:54.210Z,85.30
2018-02-17T05:54:21.747Z,85.30
2018-02-17T05:56:49.341Z,85.00
2018-02-17T05:59:16.879Z,84.30
2018-02-17T06:01:45.248Z,84.30
2018-02-17T06:04:13.562Z,83.90
2018-02-17T06:06:41.471Z,84.00
2018-02-17T06:09:09.102Z,83.70
2018-02-17T06:11:37.026Z,83.90
2018-02-17T06:14:05.251Z,84.00
2018-02-17T06:16:32.855Z,84.10
2018-02-17T06:19:01.209Z,85.40
2018-02-17T06:21:29.566Z,85.50
2018-02-17T06:23:57.116Z,85.50
2018-02-17T06:26:25.638Z,85.70
2018-02-17T06:28:53.215Z,85.70
2018-02-17T06:31:20.972Z,85.90
2018-02-17T06:33:49.146Z,86.60
2018-02-17T06:36:17.498Z,87.10
2018-02-17T06:38:46.822Z,86.80
2018-02-17T06:41:14.431Z,86.90
2018-02-17T06:43:42.733Z,88.10
2018-02-17T06:46:10.369Z,88.10
2018-02-17T06:48:37.910Z,87.30
2018-02-17T06:51:06.590Z,86.60
2018-02-17T06:53:34.851Z,86.40
2018-02-17T06:56:02.422Z,86.60
2018-02-17T06:58:30.357Z,86.50
2018-02-17T07:00:57.929Z,87.40
2018-02-17T07:03:26.543Z,87.70
2018-02-17T07:05:54.138Z,87.80
2018-02-17T07:08:21.795Z,87.90
2018-02-17T07:10:50.215Z,88.90
2018-02-17T07:13:17.770Z,88.90
2018-02-17T07:15:45.988Z,88.80
2018-02-17T07:18:14.482Z,89.30
2018-02-17T07:20:42.045Z,88.80
2018-02-17T07:23:09.812Z,89.10
2018-02-17T07:25:38.121Z,87.70
2018-02-17T07:28:06.525Z,87.70
2018-02-17T07:30:35.405Z,87.80
2018-02-17T07:33:03.795Z,87.90
2018-02-17T07:35:31.339Z,88.00
2018-02-17T07:37:58.931Z,88.50
2018-02-17T07:40:26.630Z,87.90
2018-02-17T07:42:54.286Z,87.70
2018-02-17T07:45:21.844Z,88.00
2018-02-17T07:47:49.441Z,87.70
2018-02-17T07:50:17.359Z,87.60
2018-02-17T07:52:44.957Z,87.60
2018-02-17T07:55:12.662Z,88.30
2018-02-17T07:57:40.312Z,87.50
2018-02-17T08:00:07.873Z,87.30
2018-02-17T08:02:35.910Z,86.70
2018-02-17T08:05:03.521Z,87.10
2018-02-17T08:07:31.213Z,86.20
2018-02-17T08:09:58.758Z,85.60
2018-02-17T08:12:26.468Z,86.70
2018-02-17T08:14:54.842Z,86.60
2018-02-17T08:17:23.193Z,86.50
2018-02-17T08:19:51.577Z,86.90
2018-02-17T08:22:19.126Z,86.90
2018-02-17T08:24:47.212Z,87.00
2018-02-17T08:27:14.768Z,86.70
2018-02-17T08:29:42.432Z,86.50
2018-02-17T08:32:10.798Z,85.70
2018-02-17T08:34:39.115Z,85.80
2018-02-17T08:37:07.999Z,85.80
2018-02-17T08:39:37.122Z,86.70
2018-02-17T08:42:05.487Z,86.60
2018-02-17T08:44:33.080Z,85.70
2018-02-17T08:47:01.627Z,85.50
2018-02-17T08:49:29.212Z,85.70
2018-02-17T08:51:57.615Z,86.00
2018-02-17T08:54:25.321Z,86.00
2018-02-17T08:56:53.648Z,86.20
2018-02-17T08:59:21.425Z,86.10
2018-02-17T09:01:49.844Z,84.30
2018-02-17T09:04:17.477Z,84.30
2018-02-17T09:06:45.095Z,83.90
2018-02-17T09:09:13.463Z,84.10
2018-02-17T09:11:42.281Z,84.10
2018-02-17T09:14:10.921Z,84.40
2018-02-17T09:16:38.708Z,84.60
2018-02-17T09:19:07.903Z,83.50
2018-02-17T09:21:36.344Z,83.50
2018-02-17T09:24:03.908Z,84.10
2018-02-17T09:26:32.294Z,83.40
2018-02-17T09:29:01.912Z,83.40
2018-02-17T09:31:29.604Z,83.10
2018-02-17T09:33:57.168Z,82.80
2018-02-17T09:36:25.539Z,81.70
2018-02-17T09:38:53.131Z,81.60
2018-02-17T09:41:20.966Z,82.50
2018-02-17T09:43:48.595Z,82.40
2018-02-17T09:46:16.142Z,82.00
2018-02-17T09:48:43.726Z,82.20
2018-02-17T09:51:11.360Z,82.50
2018-02-17T09:53:39.885Z,82.60
2018-02-17T09:56:08.303Z,82.00
2018-02-17T09:58:36.887Z,81.40
2018-02-17T10:01:05.099Z,82.50
2018-02-17T10:03:32.699Z,82.70
2018-02-17T10:06:00.339Z,81.70
2018-02-17T10:08:29.126Z,82.30
2018-02-17T10:10:57.430Z,81.40
2018-02-17T10:13:25.095Z,81.40
2018-02-17T10:15:52.658Z,81.90
2018-02-17T10:18:20.225Z,81.30
2018-02-17T10:20:47.860Z,81.00
2018-02-17T10:23:16.209Z,80.80
2018-02-17T10:25:44.609Z,81.10
2018-02-17T10:28:12.331Z,81.10
2018-02-17T10:30:40.709Z,80.50
2018-02-17T10:33:08.277Z,80.50
2018-02-17T10:35:38.099Z,81.20
2018-02-17T10:38:06.084Z,81.30
2018-02-17T10:40:33.733Z,80.90
2018-02-17T10:43:01.337Z,80.70
2018-02-17T10:45:29.250Z,81.50
2018-02-17T10:47:57.885Z,81.70
2018-02-17T10:50:25.550Z,80.90
2018-02-17T10:52:53.169Z,81.10
2018-02-17T10:55:20.756Z,81.10
2018-02-17T10:57:48.366Z,80.00
2018-02-17T11:00:16.937Z,80.60
2018-02-17T11:02:45.550Z,81.10
2018-02-17T11:05:20.855Z,81.00
2018-02-17T11:07:49.400Z,82.00
2018-02-17T11:10:17.008Z,82.00
2018-02-17T11:12:54.610Z,81.80
2018-02-17T11:15:22.482Z,82.00
2018-02-17T11:17:50.154Z,82.00
2018-02-17T11:20:17.807Z,81.90
2018-02-17T11:22:45.528Z,81.30
2018-02-17T11:25:13.883Z,81.40
2018-02-17T11:27:41.512Z,81.40
2018-02-17T11:30:28.434Z,82.40
2018-02-17T11:32:56.341Z,82.30
2018-02-17T11:35:24.790Z,83.10
2018-02-17T11:37:52.401Z,83.20
2018-02-17T11:40:20.024Z,83.80
2018-02-17T11:42:47.673Z,83.70
2018-02-17T11:45:15.556Z,84.20
2018-02-17T11:47:43.374Z,84.70
2018-02-17T11:50:11.161Z,84.80
2018-02-17T11:52:38.781Z,84.90
2018-02-17T11:55:06.352Z,84.80
2018-02-17T11:57:34.309Z,83.70
2018-02-17T12:00:02.344Z,83.80
2018-02-17T12:02:30.729Z,83.70
2018-02-17T12:04:59.163Z,83.70
2018-02-17T12:07:26.861Z,83.70
2018-02-17T12:09:55.349Z,84.40
2018-02-17T12:12:23.273Z,84.60
2018-02-17T12:14:51.170Z,85.20
2018-02-17T12:17:18.232Z,85.10
2018-02-17T12:20:05.742Z,85.00
2018-02-17T12:22:34.421Z,85.00
2018-02-17T12:25:02.835Z,84.90
2018-02-17T12:27:30.620Z,84.50
2018-02-17T12:29:58.368Z,83.90
2018-02-17T12:32:25.948Z,83.40
2018-02-17T12:34:53.531Z,83.00
2018-02-17T12:40:09.741Z,83.20
2018-02-17T12:42:38.091Z,83.00
2018-02-17T12:47:59.203Z,83.60
2018-02-17T12:50:39.901Z,83.50
2018-02-17T12:53:07.579Z,83.70
2018-02-17T12:55:36.096Z,83.20
2018-02-17T12:58:23.188Z,83.50
2018-02-17T13:00:50.770Z,83.20
2018-02-17T13:03:18.853Z,82.90
2018-02-17T13:05:46.801Z,82.90
2018-02-17T13:08:14.354Z,82.20
2018-02-17T13:10:42.669Z,82.40
2018-02-17T13:13:10.321Z,82.40
2018-02-17T13:15:38.100Z,82.30
2018-02-17T13:18:05.848Z,82.70
2018-02-17T13:20:33.542Z,82.80
2018-02-17T13:23:01.289Z,82.90
2018-02-17T13:25:29.039Z,83.00
2018-02-17T13:27:56.599Z,83.00
2018-02-17T13:30:24.198Z,82.10
2018-02-17T13:32:51.754Z,81.70
2018-02-17T13:35:19.346Z,81.60
2018-02-17T13:37:48.942Z,81.60
2018-02-17T13:40:18.240Z,81.00
2018-02-17T13:42:46.595Z,80.90
2018-02-17T13:45:14.179Z,80.90
2018-02-17T13:47:42.705Z,81.10
2018-02-17T13:50:10.369Z,81.00
2018-02-17T13:52:38.505Z,81.40
2018-02-17T13:55:06.138Z,81.10
2018-02-17T13:57:38.391Z,80.90
2018-02-17T14:00:06.761Z,80.90
2018-02-17T14:02:35.844Z,82.20
2018-02-17T14:05:03.430Z,82.10
2018-02-17T14:07:31.069Z,81.50
2018-02-17T14:09:59.437Z,82.30
2018-02-17T14:12:28.000Z,82.30
2018-02-17T14:14:56.562Z,82.00
2018-02-17T14:17:24.886Z,81.40
2018-02-17T14:19:52.794Z,81.40
2018-02-17T14:22:20.454Z,81.70
2018-02-17T14:24:48.186Z,81.80
2018-02-17T14:27:15.738Z,82.00
2018-02-17T14:29:44.048Z,82.30
2018-02-17T14:32:12.426Z,82.00
2018-02-17T14:34:41.807Z,82.30
2018-02-17T14:37:09.521Z,82.30
2018-02-17T14:39:37.099Z,82.50
2018-02-17T14:42:04.788Z,82.40
2018-02-17T14:44:32.464Z,82.00
2018-02-17T14:47:00.126Z,82.40
2018-02-17T14:49:28.016Z,82.80
2018-02-17T14:51:55.665Z,82.70
2018-02-17T14:54:24.073Z,82.20
2018-02-17T14:56:51.704Z,82.10
2018-02-17T14:59:20.173Z,83.30
2018-02-17T15:01:48.841Z,83.80
2018-02-17T15:04:16.421Z,83.80
2018-02-17T15:06:44.773Z,83.60
2018-02-17T15:09:12.356Z,83.60
2018-02-17T15:11:40.783Z,83.40
2018-02-17T15:14:08.435Z,83.40
2018-02-17T15:16:36.085Z,83.50
2018-02-17T15:19:03.656Z,83.30
2018-02-17T15:21:31.763Z,82.80
2018-02-17T15:23:59.376Z,82.70
2018-02-17T15:26:27.183Z,83.30
2018-02-17T15:28:55.514Z,82.90
2018-02-17T15:31:23.116Z,82.90
2018-02-17T15:33:50.981Z,82.50
2018-02-17T15:36:18.655Z,83.10
2018-02-17T15:38:47.363Z,84.00
2018-02-17T15:41:14.907Z,84.00
2018-02-17T15:43:43.224Z,83.50
2018-02-17T15:46:10.942Z,83.50
2018-02-17T15:48:38.563Z,83.30
2018-02-17T15:51:06.227Z,83.00
2018-02-17T15:53:33.895Z,83.50
2018-02-17T15:56:01.538Z,83.40
2018-02-17T15:58:30.214Z,83.50
2018-02-17T16:00:58.190Z,83.90
2018-02-17T16:03:25.818Z,83.20
2018-02-17T16:05:53.395Z,83.50
2018-02-17T16:08:20.949Z,82.80
2018-02-17T16:10:48.940Z,83.10
2018-02-17T16:13:17.420Z,82.20
2018-02-17T16:15:44.969Z,82.20
2018-02-17T16:18:13.028Z,82.50
2018-02-17T16:20:40.607Z,82.20
2018-02-17T16:23:08.214Z,82.20
2018-02-17T16:25:35.893Z,82.00
2018-02-17T16:28:03.485Z,83.00
2018-02-17T16:30:31.087Z,82.20
2018-02-17T16:32:59.414Z,82.30
2018-02-17T16:35:27.279Z,82.30
2018-02-17T16:37:55.045Z,82.20
2018-02-17T16:40:22.634Z,81.90
2018-02-17T16:42:50.227Z,82.10
2018-02-17T16:45:18.594Z,81.90
2018-02-17T16:47:47.033Z,81.60
2018-02-17T16:50:14.612Z,81.50
2018-02-17T16:52:42.442Z,81.70
2018-02-17T16:55:10.134Z,82.30
2018-02-17T16:57:37.925Z,82.20
2018-02-17T17:00:06.271Z,82.50
2018-02-17T17:02:33.899Z,81.90
2018-02-17T17:05:01.539Z,82.10
2018-02-17T17:07:29.174Z,82.50
2018-02-17T17:09:57.516Z,82.50
2018-02-17T17:12:25.125Z,82.50
2018-02-17T17:14:52.735Z,82.40
2018-02-17T17:17:21.093Z,81.50
2018-02-17T17:19:49.662Z,81.70
2018-02-17T17:22:17.547Z,81.60
2018-02-17T17:24:45.141Z,81.60
2018-02-17T17:27:12.782Z,81.80
2018-02-17T17:29:41.866Z,81.60
2018-02-17T17:32:09.722Z,81.60
2018-02-17T17:34:37.396Z,82.20
2018-02-17T17:37:04.947Z,81.60
2018-02-17T17:39:34.451Z,81.40
2018-02-17T17:42:02.045Z,82.30
2018-02-17T17:44:30.460Z,81.60
2018-02-17T17:46:58.007Z,81.60
2018-02-17T17:49:26.621Z,81.60
2018-02-17T17:51:55.363Z,81.80
2018-02-17T17:54:23.840Z,82.20
2018-02-17T17:56:51.508Z,82.10
2018-02-17T17:59:19.934Z,82.00
2018-02-17T18:01:47.578Z,81.90
2018-02-17T18:04:15.167Z,82.30
2018-02-17T18:06:42.975Z,82.70
2018-02-17T18:09:10.663Z,82.70
2018-02-17T18:11:38.238Z,82.80
2018-02-17T18:14:05.866Z,82.20
2018-02-17T18:16:33.434Z,82.70
2018-02-17T18:19:01.146Z,82.60
2018-02-17T18:21:28.924Z,82.00
2018-02-17T18:23:57.345Z,81.70
2018-02-17T18:26:24.966Z,81.70
2018-02-17T18:28:55.374Z,81.20
2018-02-17T18:31:23.179Z,81.30
2018-02-17T18:33:50.873Z,80.70
2018-02-17T18:36:18.646Z,80.90
2018-02-17T18:38:46.326Z,80.80
2018-02-17T18:41:13.928Z,80.70
2018-02-17T18:43:41.618Z,80.80
2018-02-17T18:46:11.099Z,80.80
2018-02-17T18:48:38.693Z,80.90
2018-02-17T18:51:06.281Z,80.80
2018-02-17T18:53:34.605Z,81.10
2018-02-17T18:56:02.178Z,81.10
2018-02-17T18:58:30.803Z,81.20
2018-02-17T19:00:59.303Z,81.00
2018-02-17T19:03:26.895Z,81.00
2018-02-17T19:05:54.440Z,81.20
2018-02-17T19:08:22.256Z,81.40
2018-02-17T19:10:50.588Z,81.20
2018-02-17T19:13:18.728Z,81.20
2018-02-17T19:15:46.663Z,81.10
2018-02-17T19:18:14.342Z,81.00
2018-02-17T19:20:42.692Z,80.80
2018-02-17T19:23:11.096Z,80.90
2018-02-17T19:25:38.717Z,80.80
2018-02-17T19:28:06.643Z,80.70
2018-02-17T19:30:34.271Z,80.60
2018-02-17T19:33:02.156Z,80.70
2018-02-17T19:35:29.825Z,80.50
2018-02-17T19:37:58.914Z,80.60
2018-02-17T19:40:26.611Z,80.80
2018-02-17T19:42:54.396Z,80.80
2018-02-17T19:45:22.112Z,80.70
2018-02-17T19:47:50.014Z,80.80
2018-02-17T19:50:17.923Z,80.40
2018-02-17T19:52:46.304Z,80.70
2018-02-17T19:55:13.984Z,80.60
2018-02-17T19:57:41.629Z,80.00
2018-02-17T20:00:10.217Z,79.90
2018-02-17T20:02:38.723Z,80.00
2018-02-17T20:05:08.405Z,80.10
2018-02-17T20:07:35.972Z,80.10
2018-02-17T20:10:03.561Z,80.10
2018-02-17T20:12:31.260Z,80.00
2018-02-17T20:14:59.588Z,80.10
2018-02-17T20:17:28.392Z,80.10
2018-02-17T20:19:56.016Z,79.70
2018-02-17T20:22:23.723Z,79.50
2018-02-17T20:24:52.243Z,79.40
2018-02-17T20:27:19.824Z,79.70
2018-02-17T20:29:47.549Z,80.00
2018-02-17T20:32:15.995Z,80.00
2018-02-17T20:34:43.652Z,80.00
2018-02-17T20:37:11.267Z,80.30
2018-02-17T20:39:38.959Z,80.30
2018-02-17T20:42:06.724Z,80.10
2018-02-17T20:44:34.357Z,80.00
2018-02-17T20:47:02.020Z,79.90
2018-02-17T20:49:29.679Z,79.70
2018-02-17T20:51:57.295Z,79.70
2018-02-17T20:54:24.961Z,79.60
2018-02-17T20:56:55.428Z,80.00
2018-02-17T20:59:23.100Z,80.00
2018-02-17T21:01:55.841Z,79.80
2018-02-17T21:04:24.192Z,79.80
2018-02-17T21:06:52.074Z,79.40
2018-02-17T21:09:24.040Z,79.30
2018-02-17T21:11:52.009Z,79.30
2018-02-17T21:14:21.074Z,79.80
2018-02-17T21:16:51.118Z,79.80
2018-02-17T21:19:18.946Z,79.40
2018-02-17T21:21:46.600Z,79.40
2018-02-17T21:24:14.191Z,79.40
2018-02-17T21:26:41.832Z,79.90
2018-02-17T21:29:09.852Z,80.10
2018-02-17T21:31:37.455Z,80.20
2018-02-17T21:34:05.069Z,79.90
2018-02-17T21:36:33.711Z,79.70
2018-02-17T21:39:01.984Z,79.80
2018-02-17T21:41:30.579Z,79.40
2018-02-17T21:43:58.185Z,79.30
2018-02-17T21:46:25.926Z,79.30
2018-02-17T21:48:53.538Z,79.40
2018-02-17T21:51:21.251Z,78.90
2018-02-17T21:53:50.557Z,78.90
2018-02-17T21:56:18.169Z,79.00
2018-02-17T21:58:46.209Z,79.20
2018-02-17T22:01:13.788Z,79.40
2018-02-17T22:03:42.190Z,79.60
2018-02-17T22:06:09.859Z,79.60
2018-02-17T22:08:38.174Z,79.90
2018-02-17T22:11:06.125Z,79.50
2018-02-17T22:13:33.793Z,79.40
2018-02-17T22:16:01.864Z,79.10
2018-02-17T22:18:29.479Z,79.20
2018-02-17T22:20:57.075Z,78.90
2018-02-17T22:23:24.648Z,78.70
2018-02-17T22:25:52.264Z,78.70
2018-02-17T22:28:19.912Z,78.90
2018-02-17T22:30:47.508Z,80.00
2018-02-17T22:33:15.215Z,79.10
2018-02-17T22:35:42.951Z,79.80
2018-02-17T22:38:10.629Z,79.80
2018-02-17T22:40:38.260Z,79.70
2018-02-17T22:43:06.265Z,79.70
2018-02-17T22:45:33.796Z,80.50
2018-02-17T22:48:01.334Z,79.70
2018-02-17T22:50:29.690Z,79.60
2018-02-17T22:52:57.254Z,79.60
2018-02-17T22:55:25.606Z,80.00
2018-02-17T22:57:53.290Z,80.00
2018-02-17T23:00:29.714Z,80.00
2018-02-17T23:02:57.291Z,80.60
2018-02-17T23:05:24.982Z,79.90
2018-02-17T23:07:54.295Z,79.70
2018-02-17T23:10:23.679Z,79.60
2018-02-17T23:12:52.309Z,79.60
2018-02-17T23:15:19.858Z,79.50
2018-02-17T23:17:51.496Z,79.50
2018-02-17T23:20:19.832Z,79.60
2018-02-17T23:22:47.425Z,79.60
2018-02-17T23:25:15.756Z,79.80
2018-02-17T23:27:45.448Z,79.80
2018-02-17T23:30:13.012Z,79.50
2018-02-17T23:32:41.392Z,80.30
2018-02-17T23:35:08.938Z,80.00
2018-02-17T23:37:36.538Z,79.60
2018-02-17T23:40:04.379Z,79.40
2018-02-17T23:42:31.939Z,79.60
2018-02-17T23:44:59.577Z,79.60
2018-02-17T23:47:27.170Z,79.90
2018-02-17T23:49:55.089Z,79.90
2018-02-17T23:52:22.642Z,79.60
2018-02-17T23:54:50.989Z,79.60
2018-02-17T23:57:19.505Z,79.70
2018-02-17T23:59:47.068Z,79.60
